Time;durP1;ratioP1;P1;durP2;ratioP2;P2;SDS_P1;SDS_P2;PMS_P1;PMS_P2;Temp;Humidity;BMP_temperature;BMP_pressure;BME280_temperature;BME280_humidity;BME280_pressure;Samples;Min_cycle;Max_cycle;Signal;HPM_P1;HPM_P2
2023/03/30 00:01:29;;;;;;;;;6.00;6.00;;;;;-147.17;100.00;219.72;5053300;28;51030;-46
2023/03/30 00:03:54;;;;;;;;;5.33;5.00;;;;;-147.17;100.00;-277.75;5050901;28;51125;-45
2023/03/30 00:06:21;;;;;;;;;5.67;5.67;;;;;-147.17;100.00;-775.19;5015709;28;51263;-45
2023/03/30 00:08:52;;;;;;;;;6.00;5.00;;;;;-147.17;100.00;-1272.53;5052971;28;50920;-45
2023/03/30 00:11:21;;;;;;;;;6.00;5.67;;;;;-147.17;100.00;-2018.47;5052591;28;51385;-46
2023/03/30 00:13:47;;;;;;;;;6.00;6.00;;;;;-147.17;100.00;-3012.78;5041590;28;52075;-47
2023/03/30 00:16:13;;;;;;;;;7.00;6.00;;;;;-147.17;100.00;-4255.34;5054224;28;51175;-44
2023/03/30 00:18:40;;;;;;;;;5.67;5.00;;;;;-147.17;100.00;-5000.69;5053532;28;51020;-45
2023/03/30 00:21:08;;;;;;;;;6.33;5.00;;;;;-147.17;100.00;-5745.88;5050431;28;52183;-46
2023/03/30 00:23:34;;;;;;;;;5.00;5.00;;;;;-147.17;100.00;-6490.94;5052735;28;51024;-45
2023/03/30 00:26:00;;;;;;;;;5.67;5.67;;;;;-147.17;100.00;-6987.56;5053019;28;51251;-45
2023/03/30 00:28:25;;;;;;;;;7.00;5.33;;;;;-147.17;100.00;-7980.59;5052278;28;51111;-44
2023/03/30 00:30:52;;;;;;;;;5.00;5.00;;;;;-147.17;100.00;-8477.03;5046461;28;51039;-44
2023/03/30 00:33:18;;;;;;;;;6.33;6.00;;;;;-147.17;100.00;-8973.38;5054132;28;51121;-47
2023/03/30 00:35:51;;;;;;;;;4.33;4.33;;;;;-147.17;100.00;-9221.53;5050427;28;51276;-44
2023/03/30 00:38:16;;;;;;;;;6.00;5.00;;;;;-147.17;100.00;-9221.53;5047347;28;51145;-44
2023/03/30 00:40:51;;;;;;;;;5.00;5.00;;;;;-147.17;100.00;-9469.69;5046012;28;51096;-44
2023/03/30 00:43:16;;;;;;;;;5.00;5.00;;;;;-147.17;100.00;-9717.81;5051444;28;51274;-44
2023/03/30 00:45:41;;;;;;;;;5.00;5.00;;;;;-147.17;100.00;-9717.81;5047184;28;51290;-45
2023/03/30 00:48:26;;;;;;;;;5.33;5.00;;;;;-147.17;100.00;-10462.09;5053162;28;51051;-45
2023/03/30 00:50:55;;;;;;;;;7.00;7.00;;;;;-147.17;100.00;-10462.09;5033921;28;51269;-45
2023/03/30 00:53:46;;;;;;;;;4.33;4.33;;;;;-147.17;100.00;-10710.16;5052609;28;51806;-46
2023/03/30 00:56:15;;;;;;;;;4.00;4.00;;;;;-147.17;100.00;-10462.09;5022653;28;50969;-46
2023/03/30 00:58:43;;;;;;;;;4.67;4.33;;;;;-147.17;100.00;-10462.09;5049883;28;51193;-48
2023/03/30 01:01:14;;;;;;;;;5.00;4.00;;;;;-147.17;100.00;-10710.16;5022097;28;56085;-44
2023/03/30 01:03:45;;;;;;;;;6.00;6.00;;;;;-147.17;100.00;-10710.16;5049891;28;52180;-45
2023/03/30 01:06:11;;;;;;;;;5.00;5.00;;;;;-147.17;100.00;-11206.22;5052617;28;51164;-46
2023/03/30 01:08:38;;;;;;;;;6.00;5.00;;;;;-147.17;100.00;-11950.22;5051563;28;51106;-44
2023/03/30 01:11:06;;;;;;;;;5.00;5.00;;;;;-147.17;100.00;-12198.19;5046209;28;51248;-45
2023/03/30 01:13:36;;;;;;;;;5.00;5.00;;;;;-147.17;100.00;-12198.19;5052542;28;51144;-46
2023/03/30 01:16:28;;;;;;;;;5.00;5.00;;;;;-147.17;100.00;-12446.13;5047910;28;50970;-45
2023/03/30 01:19:10;;;;;;;;;6.33;5.00;;;;;-147.17;100.00;-12694.06;5052103;28;51278;-47
2023/03/30 01:22:07;;;;;;;;;4.00;4.00;;;;;-147.17;100.00;-13189.88;5033168;28;51454;-44
2023/03/30 01:24:48;;;;;;;;;6.00;5.00;;;;;-147.17;100.00;-13437.75;5041147;28;51771;-45
2023/03/30 01:27:48;;;;;;;;;5.00;5.00;;;;;-147.17;100.00;-13685.63;5034753;28;51038;-45
2023/03/30 01:30:52;;;;;;;;;6.00;5.67;;;;;-147.17;100.00;-14181.31;5037813;28;51089;-44
2023/03/30 01:33:45;;;;;;;;;3.33;3.33;;;;;-147.17;100.00;-14429.16;5035435;28;51112;-44
2023/03/30 01:36:44;;;;;;;;;4.00;4.00;;;;;-147.17;100.00;-14429.16;5042172;28;51845;-44
2023/03/30 01:39:12;;;;;;;;;3.00;3.00;;;;;-147.17;100.00;-14924.75;5051258;28;51167;-46
2023/03/30 01:41:46;;;;;;;;;4.00;4.00;;;;;-147.17;100.00;-14676.94;5035635;28;51015;-44
2023/03/30 01:44:31;;;;;;;;;2.67;2.00;;;;;-147.17;100.00;-15172.50;5038739;28;51101;-46
2023/03/30 01:47:05;;;;;;;;;3.00;3.00;;;;;-147.17;100.00;-14924.75;5052519;28;52494;-45
2023/03/30 01:49:42;;;;;;;;;2.67;2.67;;;;;-147.17;100.00;-14924.75;5051901;28;51052;-46
2023/03/30 01:52:16;;;;;;;;;3.00;3.00;;;;;-147.17;100.00;-14924.75;5051345;28;51269;-44
2023/03/30 01:54:49;;;;;;;;;2.00;2.00;;;;;-147.17;100.00;-15172.50;5049987;28;51259;-44
2023/03/30 01:57:24;;;;;;;;;3.00;3.00;;;;;-147.17;100.00;-15420.25;5045670;28;52182;-44
2023/03/30 01:59:58;;;;;;;;;2.00;2.00;;;;;-147.17;100.00;-15420.25;5044641;28;51172;-47
2023/03/30 02:02:29;;;;;;;;;2.00;2.00;;;;;-147.17;100.00;-15420.25;5052009;28;51066;-45
2023/03/30 02:04:58;;;;;;;;;4.00;3.00;;;;;-147.17;100.00;-15420.25;5051348;28;51004;-44
2023/03/30 02:07:28;;;;;;;;;3.33;3.33;;;;;-147.17;100.00;-15420.25;5030301;28;53264;-44
2023/03/30 02:10:00;;;;;;;;;2.00;2.00;;;;;-147.17;100.00;-15420.25;5047390;28;52834;-45
2023/03/30 02:12:28;;;;;;;;;2.00;2.00;;;;;-147.17;100.00;-15668.00;5042677;28;51102;-45
2023/03/30 02:14:59;;;;;;;;;2.33;1.33;;;;;-147.17;100.00;-15668.00;5047976;28;51342;-46
2023/03/30 02:17:28;;;;;;;;;2.00;2.00;;;;;-147.17;100.00;-15668.00;5051849;28;51748;-44
2023/03/30 02:19:56;;;;;;;;;3.00;3.00;;;;;-147.17;100.00;-15668.00;5046553;28;51347;-45
2023/03/30 02:22:23;;;;;;;;;2.67;2.67;;;;;-147.17;100.00;-15668.00;5031228;28;51225;-45
2023/03/30 02:24:53;;;;;;;;;3.00;3.00;;;;;-147.17;100.00;-15915.72;5049671;28;51235;-46
2023/03/30 02:27:21;;;;;;;;;3.00;2.00;;;;;-147.17;100.00;-15915.72;5045925;28;51071;-46
2023/03/30 02:29:47;;;;;;;;;2.33;2.33;;;;;-147.17;100.00;-15915.72;5039726;28;51609;-45
2023/03/30 02:32:22;;;;;;;;;3.00;3.00;;;;;-147.17;100.00;-15915.72;5018531;28;51326;-43
2023/03/30 02:34:59;;;;;;;;;2.67;2.67;;;;;-147.17;100.00;-15915.72;5041533;28;51116;-46
2023/03/30 02:37:40;;;;;;;;;9.67;9.00;;;;;-147.17;100.00;-15915.72;5044892;28;51171;-46
2023/03/30 02:40:41;;;;;;;;;31.25;30.25;;;;;-147.17;100.00;-15915.72;5031243;28;51211;-46
2023/03/30 02:43:25;;;;;;;;;25.50;24.25;;;;;-147.17;100.00;-15668.00;5051340;28;51320;-46
2023/03/30 02:46:02;;;;;;;;;27.75;25.50;;;;;-147.17;100.00;-15915.72;5048237;28;51669;-46
2023/03/30 02:49:01;;;;;;;;;6.67;5.33;;;;;-147.17;100.00;-15915.72;5050246;28;52472;-45
2023/03/30 02:51:44;;;;;;;;;6.00;6.00;;;;;-147.17;100.00;-15917.19;5049827;28;51579;-46
2023/03/30 02:54:29;;;;;;;;;5.75;5.25;;;;;-147.17;100.00;-15915.72;5045096;28;51195;-47
2023/03/30 02:57:03;;;;;;;;;4.00;4.00;;;;;-147.17;100.00;-15915.72;5041402;28;51451;-45
2023/03/30 02:59:41;;;;;;;;;3.33;3.33;;;;;-147.17;100.00;-15915.72;5044182;28;51189;-44
2023/03/30 03:02:16;;;;;;;;;1.33;1.33;;;;;-147.17;100.00;-15917.19;5019511;28;51493;-43
2023/03/30 03:04:45;;;;;;;;;2.00;2.00;;;;;-147.17;100.00;-15917.19;5049849;28;51088;-44
2023/03/30 03:07:12;;;;;;;;;1.67;1.67;;;;;-147.17;100.00;-15917.19;5051693;28;50938;-45
2023/03/30 03:09:38;;;;;;;;;2.00;2.00;;;;;-147.17;100.00;-15917.19;5050252;28;51224;-44
2023/03/30 03:12:04;;;;;;;;;1.00;1.00;;;;;-147.17;100.00;-15917.19;5046530;28;51129;-43
2023/03/30 03:14:31;;;;;;;;;1.00;1.00;;;;;-147.17;100.00;-15917.19;5031766;28;51348;-45
2023/03/30 03:16:56;;;;;;;;;3.00;3.00;;;;;-147.17;100.00;-15917.19;5052325;28;51110;-45
2023/03/30 03:19:22;;;;;;;;;3.00;3.00;;;;;-147.17;100.00;-15917.19;5050587;28;51749;-47
2023/03/30 03:21:47;;;;;;;;;2.00;2.00;;;;;-147.17;100.00;-15917.19;5036302;28;51339;-45
2023/03/30 03:24:16;;;;;;;;;3.33;2.33;;;;;-147.17;100.00;-15917.19;5051684;28;51130;-45
2023/03/30 03:26:42;;;;;;;;;0.67;0.67;;;;;-147.17;100.00;-15917.19;5051106;28;51106;-45
2023/03/30 03:29:07;;;;;;;;;2.00;2.00;;;;;-147.17;100.00;-15917.19;5051438;28;51031;-44
2023/03/30 03:31:32;;;;;;;;;1.67;1.67;;;;;-147.17;100.00;-15917.19;5044688;28;51380;-45
2023/03/30 03:33:58;;;;;;;;;1.00;1.00;;;;;-147.17;100.00;-15917.19;5048237;28;51140;-46
2023/03/30 03:36:23;;;;;;;;;2.33;1.67;;;;;-147.17;100.00;-15917.19;5049048;28;51043;-47
2023/03/30 03:38:48;;;;;;;;;3.00;2.00;;;;;-147.17;100.00;-15917.19;5050963;28;51908;-46
2023/03/30 03:41:14;;;;;;;;;1.33;1.33;;;;;-147.17;100.00;-15917.19;5050722;28;51176;-45
2023/03/30 03:43:39;;;;;;;;;2.00;2.00;;;;;-147.17;100.00;-15917.19;5048635;28;51158;-46
2023/03/30 03:46:05;;;;;;;;;1.00;1.00;;;;;-147.17;100.00;-15917.19;5051082;28;50934;-45
2023/03/30 03:48:30;;;;;;;;;1.33;1.00;;;;;-147.17;100.00;-15917.19;5046411;28;51180;-47
2023/03/30 03:50:57;;;;;;;;;1.00;1.00;;;;;-147.17;100.00;-15917.19;5043631;28;51149;-44
2023/03/30 03:53:25;;;;;;;;;1.00;1.00;;;;;-147.17;100.00;-15917.19;5046574;28;51153;-46
2023/03/30 03:55:51;;;;;;;;;2.67;2.67;;;;;-147.17;100.00;-15917.19;5041530;28;51159;-47
2023/03/30 03:58:17;;;;;;;;;2.33;2.00;;;;;-147.17;100.00;-15917.19;5051309;28;52849;-47
2023/03/30 04:00:43;;;;;;;;;3.00;2.00;;;;;-147.17;100.00;-15917.19;5038433;28;50889;-46
2023/03/30 04:03:11;;;;;;;;;2.00;2.00;;;;;-147.17;100.00;-15917.19;5042307;28;51168;-44
2023/03/30 04:05:36;;;;;;;;;1.00;1.00;;;;;-147.17;100.00;-15917.19;5049017;28;51241;-45
2023/03/30 04:08:02;;;;;;;;;2.00;2.00;;;;;-147.17;100.00;-15917.19;5048497;28;51203;-45
2023/03/30 04:10:27;;;;;;;;;1.67;1.33;;;;;-147.17;100.00;-15917.19;5042620;28;51303;-43
2023/03/30 04:12:55;;;;;;;;;2.00;2.00;;;;;-147.17;100.00;-15917.19;5053828;28;51523;-45
2023/03/30 04:15:21;;;;;;;;;3.00;1.67;;;;;-147.17;100.00;-15917.19;5052819;28;51431;-45
2023/03/30 04:17:48;;;;;;;;;1.00;1.00;;;;;-147.17;100.00;-15917.19;5052630;28;51463;-45
2023/03/30 04:20:14;;;;;;;;;2.00;2.00;;;;;-147.17;100.00;-15917.19;5051678;28;51815;-45
2023/03/30 04:22:45;;;;;;;;;1.00;1.00;;;;;-147.17;100.00;-15917.19;5052027;28;51252;-47
2023/03/30 04:25:13;;;;;;;;;2.00;2.00;;;;;-147.17;100.00;-15917.19;5038360;28;51507;-46
2023/03/30 04:27:43;;;;;;;;;2.00;2.00;;;;;-147.17;100.00;-15917.19;5049993;28;52889;-47
2023/03/30 04:30:10;;;;;;;;;2.00;2.00;;;;;-147.17;100.00;-15917.19;5051928;28;51384;-49
2023/03/30 04:32:37;;;;;;;;;3.00;2.00;;;;;-147.17;100.00;-15917.19;5036557;28;51810;-45
2023/03/30 04:35:07;;;;;;;;;1.33;1.33;;;;;-147.17;100.00;-15917.19;5051852;28;51138;-43
2023/03/30 04:37:33;;;;;;;;;2.00;2.00;;;;;-147.17;100.00;-15917.19;5051032;28;52235;-46
2023/03/30 04:39:59;;;;;;;;;1.00;1.00;;;;;-147.17;100.00;-15917.19;5049823;28;51088;-44
2023/03/30 04:42:29;;;;;;;;;1.33;1.33;;;;;-147.17;100.00;-15917.19;5041198;28;51126;-46
2023/03/30 04:44:59;;;;;;;;;3.00;3.00;;;;;-147.17;100.00;-15917.19;5054349;28;51144;-44
2023/03/30 04:47:25;;;;;;;;;2.67;2.67;;;;;-147.17;100.00;-15917.19;5025897;28;53900;-47
2023/03/30 04:49:51;;;;;;;;;1.00;1.00;;;;;-147.17;100.00;-15917.19;5024057;28;51747;-45
2023/03/30 04:52:17;;;;;;;;;2.00;1.67;;;;;-147.17;100.00;-15917.19;5042057;28;51480;-45
2023/03/30 04:54:42;;;;;;;;;2.00;1.00;;;;;-147.17;100.00;-15917.19;5040766;28;51293;-45
2023/03/30 04:57:08;;;;;;;;;2.00;1.00;;;;;-147.17;100.00;-15917.19;5044758;28;51570;-46
2023/03/30 04:59:33;;;;;;;;;3.00;3.00;;;;;-147.17;100.00;-15917.19;5045012;28;51251;-45
2023/03/30 05:01:58;;;;;;;;;3.00;2.00;;;;;-147.17;100.00;-15917.19;5045321;28;51196;-48
2023/03/30 05:04:24;;;;;;;;;2.00;2.00;;;;;-147.17;100.00;-15917.19;5049854;28;51132;-45
2023/03/30 05:06:49;;;;;;;;;3.00;3.00;;;;;-147.17;100.00;-15917.19;5053330;28;51913;-45
2023/03/30 05:09:15;;;;;;;;;2.33;2.00;;;;;-147.17;100.00;-15917.19;5033854;28;51143;-46
2023/03/30 05:11:40;;;;;;;;;4.00;2.00;;;;;-147.17;100.00;-15917.19;5050838;28;51300;-46
2023/03/30 05:14:06;;;;;;;;;4.00;3.00;;;;;-147.17;100.00;-15917.19;5050841;28;51899;-47
2023/03/30 05:16:31;;;;;;;;;2.33;2.33;;;;;-147.17;100.00;-15917.19;5053459;28;51078;-46
2023/03/30 05:18:57;;;;;;;;;2.67;2.00;;;;;-147.17;100.00;-15917.19;5031087;28;51162;-46
2023/03/30 05:21:22;;;;;;;;;1.33;1.33;;;;;-147.17;100.00;-15917.19;5049557;28;51991;-45
2023/03/30 05:23:47;;;;;;;;;2.00;2.00;;;;;-147.17;100.00;-15917.19;5031706;28;51435;-45
2023/03/30 05:26:13;;;;;;;;;3.00;3.00;;;;;-147.17;100.00;-15917.19;5051942;28;51606;-45
2023/03/30 05:28:39;;;;;;;;;4.33;3.00;;;;;-147.17;100.00;-15917.19;5036517;28;51241;-46
2023/03/30 05:31:05;;;;;;;;;4.00;3.00;;;;;-147.17;100.00;-15917.19;5048176;28;51276;-47
2023/03/30 05:33:30;;;;;;;;;2.00;2.00;;;;;-147.17;100.00;-15917.19;5063451;28;51268;-47
2023/03/30 05:35:56;;;;;;;;;3.00;2.00;;;;;-147.17;100.00;-15917.19;5048113;28;51973;-45
2023/03/30 05:38:21;;;;;;;;;5.33;4.00;;;;;-147.17;100.00;-15917.19;5041175;28;50956;-47
2023/03/30 05:40:51;;;;;;;;;3.00;2.00;;;;;-147.17;100.00;-15917.19;5042084;28;51168;-49
2023/03/30 05:43:16;;;;;;;;;3.33;3.00;;;;;-147.17;100.00;-15917.19;5050888;28;52784;-46
2023/03/30 05:45:42;;;;;;;;;1.00;1.00;;;;;-147.17;100.00;-15917.19;5047469;28;51197;-46
2023/03/30 05:48:08;;;;;;;;;3.00;2.67;;;;;-147.17;100.00;-15917.19;5041874;28;51336;-46
2023/03/30 05:50:34;;;;;;;;;4.00;3.00;;;;;-147.17;100.00;-15917.19;5031108;28;51411;-48
2023/03/30 05:52:59;;;;;;;;;4.00;1.00;;;;;-147.17;100.00;-15917.19;5050941;28;51411;-46
2023/03/30 05:55:26;;;;;;;;;4.00;3.33;;;;;-147.17;100.00;-15917.19;5050515;28;52014;-47
2023/03/30 05:57:52;;;;;;;;;2.67;1.67;;;;;-147.17;100.00;-15917.19;5051029;28;51212;-44
2023/03/30 06:00:20;;;;;;;;;2.00;2.00;;;;;-147.17;100.00;-15917.19;5049184;28;51088;-45
2023/03/30 06:02:45;;;;;;;;;3.67;2.33;;;;;-147.17;100.00;-15917.19;5050421;28;51394;-45
2023/03/30 06:05:11;;;;;;;;;2.33;2.00;;;;;-147.17;100.00;-15917.19;5051084;28;51639;-46
2023/03/30 06:07:36;;;;;;;;;6.00;4.67;;;;;-147.17;100.00;-15917.19;5058632;28;51077;-46
2023/03/30 06:10:03;;;;;;;;;2.00;2.00;;;;;-147.17;100.00;-15917.19;5034503;28;51307;-47
2023/03/30 06:12:29;;;;;;;;;2.00;2.00;;;;;-147.17;100.00;-15917.19;5034598;28;51173;-46
2023/03/30 06:14:55;;;;;;;;;5.00;4.00;;;;;-147.17;100.00;-15917.19;5033454;28;53243;-46
2023/03/30 06:17:20;;;;;;;;;2.00;2.00;;;;;-147.17;100.00;-15917.19;5051953;28;51112;-46
2023/03/30 06:19:46;;;;;;;;;3.33;2.33;;;;;-147.17;100.00;-15917.19;5050040;28;51010;-47
2023/03/30 06:22:12;;;;;;;;;3.00;3.00;;;;;-147.17;100.00;-15917.19;5038311;28;51486;-46
2023/03/30 06:24:37;;;;;;;;;5.67;4.00;;;;;-147.17;100.00;-15917.19;5045065;28;51376;-45
2023/03/30 06:27:02;;;;;;;;;3.67;3.67;;;;;-147.17;100.00;-15917.19;5051458;28;50976;-45
2023/03/30 06:29:28;;;;;;;;;3.00;2.00;;;;;-147.17;100.00;-15917.19;5034514;28;50984;-45
2023/03/30 06:31:54;;;;;;;;;2.33;2.33;;;;;-147.17;100.00;-15917.19;5050906;28;51389;-46
2023/03/30 06:34:19;;;;;;;;;2.33;2.33;;;;;-147.17;100.00;-15917.19;5045943;28;51279;-48
2023/03/30 06:36:46;;;;;;;;;2.33;2.33;;;;;-147.17;100.00;-15917.19;5052501;28;51069;-49
2023/03/30 06:39:13;;;;;;;;;3.00;3.00;;;;;-147.17;100.00;-15917.19;5036247;28;51177;-49
2023/03/30 06:41:41;;;;;;;;;4.00;3.00;;;;;-147.17;100.00;-15917.19;5047562;28;51364;-47
2023/03/30 06:44:09;;;;;;;;;6.00;6.00;;;;;-147.17;100.00;-15917.19;5050967;28;51390;-46
2023/03/30 06:46:35;;;;;;;;;4.00;3.00;;;;;-147.17;100.00;-15917.19;5052787;28;51181;-46
2023/03/30 06:49:00;;;;;;;;;5.00;4.00;;;;;-147.17;100.00;-15917.19;5051197;28;51143;-49
2023/03/30 06:51:26;;;;;;;;;5.67;4.33;;;;;-147.17;100.00;-15917.19;5015969;28;51378;-47
2023/03/30 06:53:51;;;;;;;;;7.00;6.00;;;;;-147.17;100.00;-15917.19;5041892;28;52790;-47
2023/03/30 06:56:17;;;;;;;;;6.67;6.00;;;;;-147.17;100.00;-15917.19;5046416;28;51054;-46
2023/03/30 06:58:42;;;;;;;;;5.33;4.00;;;;;-147.17;100.00;-15917.19;5047197;28;51345;-47
2023/03/30 07:01:12;;;;;;;;;8.00;7.00;;;;;-147.17;100.00;-15917.19;5052138;28;51158;-47
2023/03/30 07:03:40;;;;;;;;;3.67;3.00;;;;;-147.17;100.00;-15917.19;5032594;28;51188;-45
2023/03/30 07:06:06;;;;;;;;;3.00;2.00;;;;;-147.17;100.00;-15917.19;5052152;28;51191;-47
2023/03/30 07:08:33;;;;;;;;;3.67;3.67;;;;;-147.17;100.00;-15917.19;5056057;28;51224;-48
2023/03/30 07:10:58;;;;;;;;;5.00;4.00;;;;;-147.17;100.00;-15917.19;5043867;28;51189;-46
2023/03/30 07:13:24;;;;;;;;;1.00;0.67;;;;;-147.17;100.00;-15917.19;5039840;28;51302;-46
2023/03/30 07:15:51;;;;;;;;;2.67;2.00;;;;;-147.17;100.00;-15917.19;5051527;28;51119;-46
2023/03/30 07:18:16;;;;;;;;;2.00;2.00;;;;;-147.17;100.00;-15917.19;5046691;28;51032;-45
2023/03/30 07:20:43;;;;;;;;;3.67;3.00;;;;;-147.17;100.00;-15917.19;5051466;28;51049;-47
2023/03/30 07:23:10;;;;;;;;;3.00;3.00;;;;;-147.17;100.00;-15917.19;5027450;28;53673;-46
2023/03/30 07:25:36;;;;;;;;;3.33;3.00;;;;;-147.17;100.00;-15917.19;5050536;28;51260;-51
2023/03/30 07:28:02;;;;;;;;;3.33;2.33;;;;;-147.17;100.00;-15917.19;5052101;28;51250;-45
2023/03/30 07:30:27;;;;;;;;;4.00;2.00;;;;;-147.17;100.00;-15917.19;5047828;28;51138;-45
2023/03/30 07:32:52;;;;;;;;;3.00;3.00;;;;;-147.17;100.00;-15917.19;5050468;28;51822;-49
2023/03/30 07:35:18;;;;;;;;;2.33;2.00;;;;;-147.17;100.00;-15917.19;5051399;28;51059;-45
2023/03/30 07:37:43;;;;;;;;;2.00;1.00;;;;;-147.17;100.00;-15917.19;5053743;28;51502;-51
2023/03/30 07:40:10;;;;;;;;;3.00;2.00;;;;;-147.17;100.00;-15917.19;5055331;28;50971;-46
2023/03/30 07:42:36;;;;;;;;;3.67;2.33;;;;;-147.17;100.00;-15917.19;5054939;28;51832;-46
2023/03/30 07:45:02;;;;;;;;;6.00;4.00;;;;;-147.17;100.00;-15917.19;5050902;28;51210;-48
2023/03/30 07:47:28;;;;;;;;;1.33;1.33;;;;;-147.17;100.00;-15917.19;5036985;28;50945;-47
2023/03/30 07:49:53;;;;;;;;;3.67;3.67;;;;;-147.17;100.00;-15917.19;5055310;28;51045;-48
2023/03/30 07:52:19;;;;;;;;;4.00;3.67;;;;;-147.17;100.00;-15917.19;5033061;28;53027;-47
2023/03/30 07:54:45;;;;;;;;;6.00;5.00;;;;;-147.17;100.00;-15917.19;5032111;28;51122;-47
2023/03/30 07:57:11;;;;;;;;;4.00;2.33;;;;;-147.17;100.00;-15917.19;5054269;28;51159;-47
2023/03/30 07:59:37;;;;;;;;;2.33;2.33;;;;;-147.17;100.00;-15917.19;5049525;28;51208;-48
2023/03/30 08:02:04;;;;;;;;;3.00;3.00;;;;;-147.17;100.00;-15917.19;5054815;28;51153;-48
2023/03/30 08:04:30;;;;;;;;;3.00;3.00;;;;;-147.17;100.00;-15917.19;5047057;28;51054;-45
2023/03/30 08:06:56;;;;;;;;;2.33;2.00;;;;;-147.17;100.00;-15917.19;5036402;28;51241;-47
2023/03/30 08:09:21;;;;;;;;;1.67;1.67;;;;;-147.17;100.00;-15915.72;5054334;28;51188;-49
2023/03/30 08:11:47;;;;;;;;;1.67;1.67;;;;;-147.17;100.00;-15915.72;5047153;28;51848;-47
2023/03/30 08:14:12;;;;;;;;;1.00;1.00;;;;;-147.17;100.00;-14676.94;5054905;28;51104;-46
2023/03/30 08:16:38;;;;;;;;;2.67;2.00;;;;;-147.17;100.00;-14181.31;5055019;28;50922;-50
2023/03/30 08:19:03;;;;;;;;;7.00;5.33;;;;;-147.17;100.00;-13685.63;5054181;28;51310;-49
2023/03/30 08:21:28;;;;;;;;;3.00;2.67;;;;;-147.17;100.00;-12941.97;5054377;28;53069;-49
2023/03/30 08:23:58;;;;;;;;;4.00;3.00;;;;;-147.17;100.00;-11454.25;5045268;28;50980;-46
2023/03/30 08:26:27;;;;;;;;;3.00;2.33;;;;;-147.17;100.00;-10462.09;5033148;28;51104;-47
2023/03/30 08:28:53;;;;;;;;;4.67;4.00;;;;;-147.17;100.00;-9965.91;5054680;28;51098;-46
2023/03/30 08:31:19;;;;;;;;;5.00;3.00;;;;;-147.17;100.00;-9965.91;5052895;28;51210;-47
2023/03/30 08:33:45;;;;;;;;;4.00;3.00;;;;;-147.17;100.00;-8973.38;5036159;28;51076;-47
2023/03/30 08:36:11;;;;;;;;;3.00;3.00;;;;;-147.17;100.00;-7732.34;5054272;28;51281;-49
2023/03/30 08:38:38;;;;;;;;;2.67;2.67;;;;;-147.17;100.00;-8725.22;5054437;28;51180;-48
2023/03/30 08:41:23;;;;;;;;;1.33;1.33;;;;;-147.17;100.00;-8725.22;5053653;28;52134;-50
2023/03/30 08:43:59;;;;;;;;;2.00;1.00;;;;;-147.17;100.00;-7235.84;5050418;28;51133;-51
2023/03/30 08:46:24;;;;;;;;;2.00;2.00;;;;;-147.17;100.00;-8228.81;5053924;28;51063;-49
2023/03/30 08:48:52;;;;;;;;;2.00;1.67;;;;;-147.17;100.00;-9221.53;5053623;28;51198;-46
2023/03/30 08:51:26;;;;;;;;;3.33;2.00;;;;;-147.17;100.00;-10462.09;5053287;28;52479;-47
2023/03/30 08:54:07;;;;;;;;;3.67;3.33;;;;;-147.17;100.00;-10710.16;5053733;28;50973;-51
2023/03/30 08:56:46;;;;;;;;;2.33;1.67;;;;;-147.17;100.00;-10710.16;5053640;28;51087;-44
2023/03/30 08:59:36;;;;;;;;;2.00;2.00;;;;;-147.17;100.00;-11206.22;5048543;28;51124;-47
2023/03/30 09:02:13;;;;;;;;;5.00;3.33;;;;;-147.17;100.00;-12446.13;5032658;28;52397;-48
2023/03/30 09:04:57;;;;;;;;;4.67;3.00;;;;;-147.17;100.00;-13189.88;5053801;28;51047;-50
2023/03/30 09:07:26;;;;;;;;;2.67;2.67;;;;;-147.17;100.00;-13189.88;5053535;28;51124;-50
2023/03/30 09:09:53;;;;;;;;;3.33;2.00;;;;;-147.17;100.00;-13685.63;5023583;28;50957;-51
2023/03/30 09:12:36;;;;;;;;;4.33;4.00;;;;;-147.17;100.00;-14429.16;5038900;28;52862;-48
2023/03/30 09:15:16;;;;;;;;;5.00;3.33;;;;;-147.17;100.00;-14429.16;5053377;28;51246;-47
2023/03/30 09:17:47;;;;;;;;;2.67;2.33;;;;;-147.17;100.00;-14924.75;5052141;28;51123;-47
2023/03/30 09:20:20;;;;;;;;;4.67;4.00;;;;;-147.17;100.00;-14924.75;5054053;28;51004;-50
2023/03/30 09:22:46;;;;;;;;;4.33;3.33;;;;;-147.17;100.00;-14181.31;5044195;28;51502;-46
2023/03/30 09:25:25;;;;;;;;;2.33;2.00;;;;;-147.17;100.00;-13189.88;5040572;28;51131;-49
2023/03/30 09:28:12;;;;;;;;;4.67;3.00;;;;;-147.17;100.00;-13189.88;5035346;28;51178;-46
2023/03/30 09:30:47;;;;;;;;;2.00;2.00;;;;;-147.17;100.00;-13933.50;5047067;28;51165;-46
2023/03/30 09:33:37;;;;;;;;;66.75;57.75;;;;;-147.17;100.00;-13933.50;5048612;28;52160;-49
2023/03/30 09:36:28;;;;;;;;;3.67;3.33;;;;;-147.17;100.00;-13685.63;5034935;28;51159;-50
2023/03/30 09:38:54;;;;;;;;;4.00;4.00;;;;;-147.17;100.00;-12694.06;5053326;28;51049;-49
2023/03/30 09:41:38;;;;;;;;;3.33;3.33;;;;;-147.17;100.00;-10958.19;5052955;28;50958;-50
2023/03/30 09:44:12;;;;;;;;;3.67;3.33;;;;;-147.17;100.00;-8477.03;5052975;28;50976;-50
2023/03/30 09:46:37;;;;;;;;;5.67;4.67;;;;;-147.17;100.00;-7484.09;5052776;28;51098;-48
2023/03/30 09:49:14;;;;;;;;;4.00;4.00;;;;;-147.17;100.00;-4255.34;5053109;28;51201;-47
2023/03/30 09:52:02;;;;;;;;;3.67;3.67;;;;;-147.17;100.00;-5994.25;5018631;28;51253;-48
2023/03/30 09:54:40;;;;;;;;;4.33;3.67;;;;;-147.17;100.00;-4255.34;5052097;28;51664;-48
2023/03/30 09:57:28;;;;;;;;;3.33;3.33;;;;;-147.17;100.00;-5249.09;5051906;28;51312;-46
2023/03/30 09:59:54;;;;;;;;;3.33;3.00;;;;;-147.17;100.00;-3261.34;5052665;28;51068;-49
2023/03/30 10:02:22;;;;;;;;;6.00;4.00;;;;;-147.17;100.00;-2267.06;5052880;28;50939;-49
2023/03/30 10:04:51;;;;;;;;;3.00;3.00;;;;;-147.17;100.00;-775.19;5050440;28;51017;-47
2023/03/30 10:07:23;;;;;;;;;3.33;3.33;;;;;-147.17;100.00;2708.13;5052511;28;51062;-48
2023/03/30 10:09:50;;;;;;;;;3.33;3.33;;;;;-147.17;100.00;2708.13;5034247;28;50978;-47
2023/03/30 10:12:16;;;;;;;;;5.00;4.67;;;;;-147.17;100.00;1712.56;5045595;28;51169;-47
2023/03/30 10:14:42;;;;;;;;;3.67;3.33;;;;;-147.17;100.00;3454.97;5052536;28;51050;-48
2023/03/30 10:17:19;;;;;;;;;3.00;3.00;;;;;-147.17;100.00;1712.56;5043398;28;50954;-48
2023/03/30 10:19:45;;;;;;;;;3.00;3.00;;;;;-147.17;100.00;1712.56;5052565;28;51185;-49
2023/03/30 10:22:16;;;;;;;;;4.00;4.00;;;;;-147.17;100.00;2459.22;5051438;28;50962;-46
2023/03/30 10:24:49;;;;;;;;;3.00;3.00;;;;;-147.17;100.00;2708.13;5027106;28;52121;-48
2023/03/30 10:27:15;;;;;;;;;5.00;3.33;;;;;-147.17;100.00;1961.44;5047135;28;51157;-47
2023/03/30 10:29:45;;;;;;;;;4.00;3.00;;;;;-147.17;100.00;1463.72;5050984;28;51401;-49
2023/03/30 10:32:16;;;;;;;;;5.33;4.00;;;;;-147.17;100.00;3952.94;5052256;28;50960;-47
2023/03/30 10:34:45;;;;;;;;;5.00;4.00;;;;;-147.17;100.00;5945.44;5051811;28;51831;-48
2023/03/30 10:37:26;;;;;;;;;5.33;3.00;;;;;-147.17;100.00;717.28;5051909;28;50928;-48
2023/03/30 10:39:52;;;;;;;;;11.75;11.75;;;;;-147.17;100.00;3454.97;5030985;28;51206;-49
2023/03/30 10:42:25;;;;;;;;;7.33;7.00;;;;;-147.17;100.00;7689.75;5033974;28;51409;-48
2023/03/30 10:44:58;;;;;;;;;2.67;2.00;;;;;-147.17;100.00;12428.22;5051865;28;52415;-48
2023/03/30 10:47:51;;;;;;;;;4.00;4.00;;;;;-147.17;100.00;2957.06;5052044;28;50979;-47
2023/03/30 10:50:40;;;;;;;;;5.00;3.00;;;;;-147.17;100.00;1712.56;5052103;28;51280;-48
2023/03/30 10:53:11;;;;;;;;;4.00;4.00;;;;;-147.17;100.00;3703.94;5033807;28;51268;-48
2023/03/30 10:55:43;;;;;;;;;3.00;3.00;;;;;-147.17;100.00;7939.00;5051580;28;50913;-47
2023/03/30 10:58:25;;;;;;;;;7.67;7.00;;;;;-147.17;100.00;14674.81;5051968;28;51100;-48
2023/03/30 11:01:07;;;;;;;;;5.33;4.00;;;;;-147.17;100.00;26128.66;5046133;28;51101;-47
2023/03/30 11:03:35;;;;;;;;;4.00;3.00;;;;;-147.17;100.00;31036.59;5051582;28;50913;-46
2023/03/30 11:06:19;;;;;;;;;4.33;4.00;;;;;-147.17;100.00;30738.84;5051207;28;52060;-48
2023/03/30 11:08:51;;;;;;;;;29.75;27.00;;;;;-147.17;100.00;28105.19;5051197;28;51189;-49
2023/03/30 11:11:25;;;;;;;;;3.00;3.00;;;;;-147.17;100.00;26474.97;5043636;28;51089;-49
2023/03/30 11:13:56;;;;;;;;;4.00;4.00;;;;;-147.17;100.00;29798.75;5046824;28;51308;-45
2023/03/30 11:16:49;;;;;;;;;4.33;3.00;;;;;-147.17;100.00;28774.69;5031368;28;53624;-49
2023/03/30 11:19:31;;;;;;;;;2.00;1.67;;;;;-147.17;100.00;26975.91;5044720;28;51505;-50